createdAt,value
2023-03-26T00:00:53.218Z,0.80
2023-03-26T00:03:56.872Z,1.00
2023-03-26T00:06:58.561Z,1.48
2023-03-26T00:10:00.292Z,2.75
2023-03-26T00:13:02.156Z,1.42
2023-03-26T00:16:04.439Z,1.20
2023-03-26T00:19:08.126Z,1.25
2023-03-26T00:22:10.046Z,0.63
2023-03-26T00:25:12.061Z,2.17
2023-03-26T00:28:13.752Z,0.93
2023-03-26T00:31:15.609Z,0.88
2023-03-26T00:34:18.898Z,1.27
2023-03-26T00:37:20.605Z,0.85
2023-03-26T00:40:22.372Z,0.85
2023-03-26T00:43:24.093Z,2.45
2023-03-26T00:46:27.848Z,1.40
2023-03-26T00:52:32.442Z,0.90
2023-03-26T00:55:34.249Z,0.93
2023-03-26T00:58:36.585Z,1.45
2023-03-26T01:01:38.473Z,1.00
2023-03-26T01:04:45.277Z,0.40
2023-03-26T01:07:47.053Z,0.77
2023-03-26T01:10:49.677Z,0.90
2023-03-26T01:13:54.587Z,1.60
2023-03-26T01:16:58.053Z,1.45
2023-03-26T01:20:09.814Z,1.83
2023-03-26T01:23:11.629Z,1.85
2023-03-26T01:26:29.278Z,1.50
2023-03-26T01:29:37.925Z,2.33
2023-03-26T01:32:55.486Z,1.40
2023-03-26T01:36:00.768Z,1.50
2023-03-26T01:39:08.647Z,1.42
2023-03-26T01:42:17.640Z,1.05
2023-03-26T01:45:25.344Z,1.48
2023-03-26T01:48:33.533Z,1.33
2023-03-26T01:51:35.977Z,2.22
2023-03-26T01:54:37.738Z,1.08
2023-03-26T01:57:54.479Z,1.40
2023-03-26T02:01:05.436Z,2.08
2023-03-26T02:04:17.366Z,1.13
2023-03-26T02:07:25.103Z,1.02
2023-03-26T02:10:29.395Z,1.33
2023-03-26T02:13:33.146Z,1.27
2023-03-26T02:16:35.114Z,1.25
2023-03-26T02:19:36.989Z,0.70
2023-03-26T02:22:39.468Z,2.28
2023-03-26T02:25:41.179Z,3.25
2023-03-26T02:28:44.531Z,1.35
2023-03-26T02:31:46.500Z,1.48
2023-03-26T02:34:48.222Z,1.60
2023-03-26T02:37:50.031Z,1.30
2023-03-26T02:40:51.773Z,1.27
2023-03-26T02:43:54.896Z,1.17
2023-03-26T02:46:56.630Z,2.03
2023-03-26T02:49:59.548Z,1.27
2023-03-26T02:53:01.249Z,1.48
2023-03-26T02:56:03.586Z,1.67
2023-03-26T02:59:06.687Z,1.38
2023-03-26T03:02:08.870Z,1.65
2023-03-26T03:05:10.683Z,1.20
2023-03-26T03:08:12.405Z,1.25
2023-03-26T03:11:16.794Z,1.95
2023-03-26T03:14:20.365Z,1.83
2023-03-26T03:17:22.099Z,1.23
2023-03-26T03:20:23.852Z,1.80
2023-03-26T03:23:25.567Z,1.50
2023-03-26T03:26:27.897Z,1.30
2023-03-26T03:29:31.051Z,2.63
2023-03-26T03:32:33.467Z,2.53
2023-03-26T03:35:35.481Z,3.65
2023-03-26T03:38:37.420Z,1.95
2023-03-26T03:41:39.408Z,2.25
2023-03-26T03:44:42.465Z,5.15
2023-03-26T03:47:44.774Z,1.90
2023-03-26T03:50:46.578Z,4.75
2023-03-26T03:53:48.320Z,2.20
2023-03-26T03:56:50.290Z,2.53
2023-03-26T03:59:53.460Z,1.75
2023-03-26T04:02:55.202Z,2.33
2023-03-26T04:05:57.048Z,3.45
2023-03-26T04:08:58.844Z,1.20
2023-03-26T04:12:00.529Z,3.05
2023-03-26T04:15:04.525Z,1.90
2023-03-26T04:18:06.840Z,3.42
2023-03-26T04:21:08.773Z,2.08
2023-03-26T04:24:10.552Z,2.28
2023-03-26T04:27:14.793Z,3.22
2023-03-26T04:30:20.230Z,2.88
2023-03-26T04:33:22.330Z,3.05
2023-03-26T04:36:26.648Z,4.78
2023-03-26T04:39:28.847Z,2.70
2023-03-26T04:42:30.549Z,3.03
2023-03-26T04:45:33.607Z,2.00
2023-03-26T04:48:35.736Z,2.85
2023-03-26T04:51:38.944Z,2.22
2023-03-26T04:54:42.989Z,1.83
2023-03-26T04:57:49.806Z,1.77
2023-03-26T05:00:52.879Z,2.88
2023-03-26T05:03:55.098Z,2.58
2023-03-26T05:06:57.580Z,2.80
2023-03-26T05:09:59.379Z,3.65
2023-03-26T05:13:01.209Z,2.92
2023-03-26T05:16:04.910Z,5.03
2023-03-26T05:19:06.712Z,13.70
2023-03-26T05:22:08.440Z,13.93
2023-03-26T05:25:10.449Z,9.50
2023-03-26T05:28:12.143Z,13.43
2023-03-26T05:31:17.887Z,10.95
2023-03-26T05:34:19.924Z,8.88
2023-03-26T05:37:21.670Z,8.82
2023-03-26T05:40:23.354Z,7.63
2023-03-26T05:43:25.351Z,7.97
2023-03-26T05:46:28.737Z,5.65
2023-03-26T05:49:30.509Z,7.13
2023-03-26T05:52:32.521Z,7.25
2023-03-26T05:55:34.205Z,5.47
2023-03-26T05:58:36.645Z,5.47
2023-03-26T06:01:39.725Z,6.50
2023-03-26T06:04:41.579Z,6.05
2023-03-26T06:07:43.367Z,6.50
2023-03-26T06:10:45.531Z,5.45
2023-03-26T06:13:47.510Z,4.35
2023-03-26T06:16:50.591Z,2.67
2023-03-26T06:19:52.349Z,3.08
2023-03-26T06:22:54.333Z,2.45
2023-03-26T06:25:56.285Z,2.78
2023-03-26T06:28:57.923Z,4.00
2023-03-26T06:32:12.480Z,4.43
2023-03-26T06:35:18.496Z,3.05
2023-03-26T06:38:20.275Z,3.22
2023-03-26T06:41:21.935Z,3.33
2023-03-26T06:44:23.664Z,1.80
2023-03-26T06:47:26.759Z,3.13
2023-03-26T06:50:29.633Z,2.90
2023-03-26T06:53:31.614Z,1.80
2023-03-26T06:56:33.359Z,2.30
2023-03-26T06:59:35.141Z,1.95
2023-03-26T07:02:38.537Z,2.90
2023-03-26T07:05:41.320Z,3.05
2023-03-26T07:08:43.019Z,3.08
2023-03-26T07:11:44.692Z,2.78
2023-03-26T07:14:46.380Z,1.60
2023-03-26T07:17:49.410Z,1.52
2023-03-26T07:20:51.616Z,1.92
2023-03-26T07:23:56.216Z,3.15
2023-03-26T07:27:04.051Z,2.75
2023-03-26T07:30:12.186Z,2.10
2023-03-26T07:33:22.191Z,1.98
2023-03-26T07:36:29.501Z,2.03
2023-03-26T07:39:44.708Z,1.80
2023-03-26T07:42:58.108Z,2.47
2023-03-26T07:46:00.330Z,2.72
2023-03-26T07:49:04.451Z,3.63
2023-03-26T07:52:06.680Z,2.80
2023-03-26T07:55:13.416Z,3.80
2023-03-26T07:58:35.221Z,3.25
2023-03-26T08:05:03.015Z,3.53
2023-03-26T08:08:16.036Z,3.45
2023-03-26T08:11:34.254Z,2.35
2023-03-26T08:14:48.289Z,5.88
2023-03-26T08:17:54.081Z,2.33
2023-03-26T08:21:00.813Z,2.28
2023-03-26T08:24:08.643Z,2.38
2023-03-26T08:27:16.968Z,2.67
2023-03-26T08:30:21.429Z,2.20
2023-03-26T08:33:26.512Z,2.60
2023-03-26T08:36:29.650Z,3.60
2023-03-26T08:39:31.766Z,2.13
2023-03-26T08:43:05.659Z,2.63
2023-03-26T08:49:49.224Z,3.20
2023-03-26T08:53:20.582Z,2.88
2023-03-26T08:56:32.897Z,3.80
2023-03-26T09:00:15.498Z,3.50
2023-03-26T09:04:08.013Z,5.13
2023-03-26T09:07:44.136Z,3.13
2023-03-26T09:11:05.867Z,3.70
2023-03-26T09:14:39.894Z,4.13
2023-03-26T09:18:07.352Z,3.10
2023-03-26T09:21:43.925Z,3.65
2023-03-26T09:25:18.425Z,3.72
2023-03-26T09:28:58.460Z,4.82
2023-03-26T09:32:24.103Z,2.72
2023-03-26T09:35:48.950Z,4.00
2023-03-26T09:38:53.844Z,2.58
2023-03-26T09:42:07.771Z,5.18
2023-03-26T09:45:35.160Z,2.45
2023-03-26T09:49:04.752Z,3.53
2023-03-26T09:52:26.718Z,2.83
2023-03-26T09:55:38.065Z,4.78
2023-03-26T09:59:00.777Z,3.17
2023-03-26T10:02:16.281Z,2.88
2023-03-26T10:05:27.246Z,2.78
2023-03-26T10:08:45.168Z,1.90
2023-03-26T10:12:05.062Z,2.63
2023-03-26T10:15:23.433Z,3.20
2023-03-26T10:18:37.503Z,2.33
2023-03-26T10:21:45.361Z,2.40
2023-03-26T10:25:02.318Z,6.82
2023-03-26T10:28:17.745Z,1.98
2023-03-26T10:31:40.413Z,1.88
2023-03-26T10:34:55.938Z,3.05
2023-03-26T10:41:12.455Z,3.45
2023-03-26T10:44:59.128Z,3.05
2023-03-26T10:48:27.761Z,2.15
2023-03-26T10:51:47.041Z,2.67
2023-03-26T10:54:55.646Z,1.63
2023-03-26T10:58:03.077Z,2.13
2023-03-26T11:01:11.236Z,2.70
2023-03-26T11:04:24.148Z,2.20
2023-03-26T11:07:33.571Z,1.75
2023-03-26T11:10:45.871Z,1.55
2023-03-26T11:13:57.703Z,2.38
2023-03-26T11:17:14.834Z,1.20
2023-03-26T11:20:38.761Z,1.75
2023-03-26T11:23:49.670Z,1.67
2023-03-26T11:27:18.393Z,1.15
2023-03-26T11:30:30.034Z,1.60
2023-03-26T11:33:35.634Z,1.70
2023-03-26T11:36:43.442Z,1.20
2023-03-26T11:39:50.411Z,1.40
2023-03-26T11:42:59.015Z,1.48
2023-03-26T11:46:04.194Z,2.17
2023-03-26T11:49:09.428Z,3.17
2023-03-26T11:52:12.046Z,1.75
2023-03-26T11:55:14.221Z,2.33
2023-03-26T11:58:25.991Z,2.63
2023-03-26T12:01:41.435Z,3.45
2023-03-26T12:04:45.030Z,2.55
2023-03-26T12:07:51.863Z,2.53
2023-03-26T12:11:01.144Z,2.45
2023-03-26T12:14:04.957Z,2.67
2023-03-26T12:17:12.212Z,2.28
2023-03-26T12:20:35.145Z,2.78
2023-03-26T12:23:54.140Z,2.72
2023-03-26T12:27:00.439Z,2.13
2023-03-26T12:30:12.526Z,2.20
2023-03-26T12:33:19.807Z,2.65
2023-03-26T12:36:23.334Z,2.30
2023-03-26T12:40:10.741Z,1.65
2023-03-26T12:44:56.466Z,1.60
2023-03-26T12:47:56.097Z,3.33
2023-03-26T12:50:13.259Z,2.45
2023-03-26T12:53:37.965Z,1.02
2023-03-26T12:56:48.580Z,2.17
2023-03-26T13:00:42.414Z,1.13
2023-03-26T13:04:03.467Z,2.45
2023-03-26T13:07:17.090Z,1.83
2023-03-26T13:10:34.415Z,0.52
2023-03-26T13:13:58.335Z,1.15
2023-03-26T13:17:04.713Z,1.80
2023-03-26T13:20:15.237Z,1.10
2023-03-26T13:23:31.097Z,1.15
2023-03-26T13:26:49.158Z,1.67
2023-03-26T13:29:58.355Z,1.40
2023-03-26T13:33:16.937Z,0.93
2023-03-26T13:36:24.332Z,1.98
2023-03-26T13:39:37.659Z,2.30
2023-03-26T13:42:50.858Z,2.08
2023-03-26T13:45:59.707Z,2.17
2023-03-26T13:49:09.220Z,1.65
2023-03-26T13:52:15.505Z,1.38
2023-03-26T13:55:26.000Z,2.05
2023-03-26T13:58:35.787Z,7.40
2023-03-26T14:01:44.970Z,2.60
2023-03-26T14:04:51.635Z,1.27
2023-03-26T14:07:58.698Z,1.10
2023-03-26T14:11:09.590Z,1.83
2023-03-26T14:14:18.367Z,1.23
2023-03-26T14:17:25.063Z,1.92
2023-03-26T14:20:49.525Z,1.45
2023-03-26T14:24:27.148Z,1.02
2023-03-26T14:27:44.573Z,1.10
2023-03-26T14:31:12.595Z,2.20
2023-03-26T14:34:28.096Z,2.50
2023-03-26T14:40:58.215Z,3.05
2023-03-26T14:44:47.830Z,1.70
2023-03-26T14:48:04.043Z,1.83
2023-03-26T14:51:20.052Z,2.38
2023-03-26T14:54:26.789Z,2.05
2023-03-26T14:57:57.696Z,3.10
2023-03-26T15:01:24.372Z,1.98
2023-03-26T15:04:56.780Z,2.20
2023-03-26T15:08:33.940Z,2.78
2023-03-26T15:11:47.926Z,3.78
2023-03-26T15:15:32.211Z,0.88
2023-03-26T15:19:03.819Z,1.63
2023-03-26T15:22:53.377Z,2.53
2023-03-26T15:26:28.538Z,1.40
2023-03-26T15:30:06.234Z,2.03
2023-03-26T15:33:38.913Z,5.15
2023-03-26T15:37:16.435Z,3.88
2023-03-26T15:40:29.437Z,2.78
2023-03-26T15:44:23.501Z,10.30
2023-03-26T15:47:47.257Z,3.00
2023-03-26T15:50:55.074Z,3.70
2023-03-26T15:54:05.941Z,4.13
2023-03-26T15:57:17.481Z,1.75
2023-03-26T16:00:24.414Z,3.08
2023-03-26T16:03:35.438Z,2.03
2023-03-26T16:06:51.882Z,3.80
2023-03-26T16:10:09.872Z,3.00
2023-03-26T16:13:39.286Z,2.97
2023-03-26T16:16:55.690Z,2.00
2023-03-26T16:20:23.000Z,5.88
2023-03-26T16:23:28.799Z,5.47
2023-03-26T16:26:47.550Z,1.40
2023-03-26T16:30:16.249Z,2.30
2023-03-26T16:33:22.482Z,2.65
2023-03-26T16:36:29.546Z,4.97
2023-03-26T16:39:41.969Z,4.63
2023-03-26T16:42:49.677Z,8.40
2023-03-26T16:45:59.691Z,3.65
2023-03-26T16:49:15.923Z,4.88
2023-03-26T16:52:41.123Z,6.32
2023-03-26T16:55:52.239Z,2.30
2023-03-26T16:58:56.887Z,2.95
2023-03-26T17:02:07.344Z,2.85
2023-03-26T17:05:20.017Z,6.82
2023-03-26T17:08:36.728Z,7.95
2023-03-26T17:11:50.218Z,11.82
2023-03-26T17:15:03.670Z,15.63
2023-03-26T17:18:34.036Z,11.20
2023-03-26T17:21:50.990Z,8.02
2023-03-26T17:25:00.631Z,7.45
2023-03-26T17:28:23.636Z,7.13
2023-03-26T17:31:38.153Z,5.13
2023-03-26T17:34:59.615Z,5.28
2023-03-26T17:38:04.747Z,5.10
2023-03-26T17:41:08.400Z,5.20
2023-03-26T17:44:36.274Z,6.05
2023-03-26T17:50:52.804Z,17.48
2023-03-26T17:54:00.064Z,15.27
2023-03-26T17:57:06.966Z,17.42
2023-03-26T18:00:17.167Z,23.35
2023-03-26T18:03:24.694Z,26.02
2023-03-26T18:06:45.761Z,36.92
2023-03-26T18:10:13.366Z,20.90
2023-03-26T18:13:59.335Z,24.05
2023-03-26T18:20:07.363Z,18.95
2023-03-26T18:23:12.979Z,18.10
2023-03-26T18:26:21.889Z,15.32
2023-03-26T18:29:26.841Z,14.05
2023-03-26T18:32:31.522Z,14.65
2023-03-26T18:35:41.881Z,17.45
2023-03-26T18:38:46.905Z,15.77
2023-03-26T18:41:54.526Z,16.30
2023-03-26T18:45:04.771Z,18.65
2023-03-26T18:48:16.694Z,18.98
2023-03-26T18:51:27.728Z,21.27
2023-03-26T18:54:36.100Z,24.17
2023-03-26T18:57:42.125Z,27.25
2023-03-26T19:00:48.526Z,27.75
2023-03-26T19:03:53.903Z,27.75
2023-03-26T19:07:08.911Z,25.75
2023-03-26T19:10:17.135Z,21.17
2023-03-26T19:13:28.325Z,18.98
2023-03-26T19:16:34.429Z,17.73
2023-03-26T19:19:38.358Z,18.83
2023-03-26T19:22:41.968Z,16.60
2023-03-26T19:25:47.309Z,23.13
2023-03-26T19:28:53.637Z,14.55
2023-03-26T19:32:04.082Z,14.65
2023-03-26T19:35:22.029Z,10.82
2023-03-26T19:38:26.728Z,13.07
2023-03-26T19:41:33.775Z,12.38
2023-03-26T19:44:39.247Z,13.00
2023-03-26T19:47:50.482Z,11.50
2023-03-26T19:51:02.362Z,10.63
2023-03-26T19:54:14.528Z,9.60
2023-03-26T19:57:18.904Z,9.40
2023-03-26T20:00:23.158Z,8.65
2023-03-26T20:03:29.890Z,7.50
2023-03-26T20:06:43.206Z,5.97
2023-03-26T20:09:47.556Z,6.80
2023-03-26T20:12:55.351Z,5.90
2023-03-26T20:16:06.609Z,7.32
2023-03-26T20:19:09.502Z,6.30
2023-03-26T20:22:15.540Z,5.50
2023-03-26T20:25:21.089Z,4.22
2023-03-26T20:28:24.714Z,3.70
2023-03-26T20:34:34.269Z,3.63
2023-03-26T20:37:37.142Z,3.42
2023-03-26T20:40:39.629Z,4.32
2023-03-26T20:43:43.795Z,4.05
2023-03-26T20:46:49.418Z,3.58
2023-03-26T20:49:52.091Z,5.28
2023-03-26T20:52:54.592Z,3.45
2023-03-26T20:55:56.736Z,4.22
2023-03-26T21:02:04.652Z,4.78
2023-03-26T21:05:06.863Z,6.28
2023-03-26T21:08:14.725Z,9.77
2023-03-26T21:11:27.231Z,4.18
2023-03-26T21:14:33.082Z,5.45
2023-03-26T21:17:37.702Z,4.43
2023-03-26T21:20:41.983Z,5.20
2023-03-26T21:23:49.898Z,3.10
2023-03-26T21:26:58.965Z,3.33
2023-03-26T21:30:01.216Z,4.00
2023-03-26T21:33:04.334Z,4.43
2023-03-26T21:36:07.054Z,4.60
2023-03-26T21:39:10.664Z,5.70
2023-03-26T21:42:12.921Z,5.07
2023-03-26T21:45:15.534Z,4.57
2023-03-26T21:48:19.344Z,4.18
2023-03-26T21:51:21.491Z,3.45
2023-03-26T21:54:25.476Z,3.25
2023-03-26T21:57:43.835Z,4.10
2023-03-26T22:00:56.762Z,3.20
2023-03-26T22:04:08.438Z,4.82
2023-03-26T22:07:15.616Z,4.05
2023-03-26T22:10:17.556Z,3.13
2023-03-26T22:13:19.224Z,3.08
2023-03-26T22:16:20.992Z,4.88
2023-03-26T22:19:24.162Z,3.70
2023-03-26T22:22:26.012Z,4.10
2023-03-26T22:25:27.753Z,3.97
2023-03-26T22:28:29.858Z,5.38
2023-03-26T22:31:31.585Z,3.75
2023-03-26T22:34:34.904Z,3.60
2023-03-26T22:37:36.941Z,4.45
2023-03-26T22:40:38.853Z,5.43
2023-03-26T22:43:40.537Z,5.25
2023-03-26T22:46:42.337Z,5.72
2023-03-26T22:49:45.439Z,4.93
2023-03-26T22:52:47.402Z,4.13
2023-03-26T22:55:49.076Z,4.13
2023-03-26T22:58:50.806Z,5.07
2023-03-26T23:01:52.594Z,4.80
2023-03-26T23:04:55.879Z,7.28
2023-03-26T23:07:57.966Z,3.80
2023-03-26T23:10:59.699Z,4.70
2023-03-26T23:14:01.700Z,4.57
2023-03-26T23:17:03.895Z,6.20
2023-03-26T23:20:08.360Z,4.22
2023-03-26T23:23:10.031Z,3.75
2023-03-26T23:26:11.876Z,4.78
2023-03-26T23:29:13.828Z,4.40
2023-03-26T23:32:24.654Z,4.38
2023-03-26T23:35:28.503Z,5.30
2023-03-26T23:38:44.102Z,5.60
2023-03-26T23:41:46.308Z,5.05
2023-03-26T23:44:47.984Z,4.45
2023-03-26T23:47:49.967Z,5.13
2023-03-26T23:50:53.984Z,4.05
2023-03-26T23:54:06.105Z,5.03
2023-03-26T23:57:08.182Z,5.55
